ESGG

Gothenburg-Landvetter Airport

Gothenburg, Sweden
METAR ESGG 250450Z 21003KT CAVOK 16/10 Q1028
Observed Flight Rules
May-25 @ 04:50 UTC (37 minutes ago) Visual Flight Rules
Wind Visibility Clouds
210° at 3 knots 10,000+ meters
  • Clear skies
Temperatures Readings
Current 16°C / 61°F
Dewpoint 10°C / 50°F
Humidity 68%
Altimeter 30.35" Hg
Pressure 1028 hPa
Elevation 169
METAR ESGG 250450Z 21003KT CAVOK 16/10 Q1028
Observed Flight Rules
May-25 @ 04:50 UTC
(37 minutes ago)
VFR
Wind Visibility
210° at 3 knots 10,000+ meters
Clouds
  • Clear skies
Temperature Dewpoint
16°C / 61°F 10°C / 50°F
Humidity Altimeter Pressure
68% 30.35" Hg 1028 hPa